sensor_id;sensor_type;location;lat;lon;timestamp;temperature;humidity
78028;DHT22;67235;45.638;11.714;2023-11-19T00:01:55;5.40;77.40
78028;DHT22;67235;45.638;11.714;2023-11-19T00:04:22;5.50;76.70
78028;DHT22;67235;45.638;11.714;2023-11-19T00:06:48;5.40;77.20
78028;DHT22;67235;45.638;11.714;2023-11-19T00:09:13;5.30;77.70
78028;DHT22;67235;45.638;11.714;2023-11-19T00:11:42;5.50;77.70
78028;DHT22;67235;45.638;11.714;2023-11-19T00:14:07;5.50;78.10
78028;DHT22;67235;45.638;11.714;2023-11-19T00:16:34;5.50;77.70
78028;DHT22;67235;45.638;11.714;2023-11-19T00:19:00;5.50;78.00
78028;DHT22;67235;45.638;11.714;2023-11-19T00:21:25;5.50;77.80
78028;DHT22;67235;45.638;11.714;2023-11-19T00:23:54;5.50;77.50
78028;DHT22;67235;45.638;11.714;2023-11-19T00:26:19;5.60;77.90
78028;DHT22;67235;45.638;11.714;2023-11-19T00:28:45;5.70;78.00
78028;DHT22;67235;45.638;11.714;2023-11-19T00:31:13;5.60;77.30
78028;DHT22;67235;45.638;11.714;2023-11-19T00:33:38;5.60;77.70
78028;DHT22;67235;45.638;11.714;2023-11-19T00:36:05;5.80;77.80
78028;DHT22;67235;45.638;11.714;2023-11-19T00:38:31;5.80;77.90
78028;DHT22;67235;45.638;11.714;2023-11-19T00:40:57;5.70;77.80
78028;DHT22;67235;45.638;11.714;2023-11-19T00:43:22;5.90;77.90
78028;DHT22;67235;45.638;11.714;2023-11-19T00:45:48;5.80;77.50
78028;DHT22;67235;45.638;11.714;2023-11-19T00:48:16;5.90;77.40
78028;DHT22;67235;45.638;11.714;2023-11-19T00:50:42;5.90;77.50
78028;DHT22;67235;45.638;11.714;2023-11-19T00:53:09;5.70;76.80
78028;DHT22;67235;45.638;11.714;2023-11-19T00:55:35;5.70;77.20
78028;DHT22;67235;45.638;11.714;2023-11-19T00:58:01;5.60;77.50
78028;DHT22;67235;45.638;11.714;2023-11-19T01:00:26;5.70;77.80
78028;DHT22;67235;45.638;11.714;2023-11-19T01:02:52;5.50;78.10
78028;DHT22;67235;45.638;11.714;2023-11-19T01:05:19;5.50;78.50
78028;DHT22;67235;45.638;11.714;2023-11-19T01:07:49;5.70;78.70
78028;DHT22;67235;45.638;11.714;2023-11-19T01:10:15;5.70;78.40
78028;DHT22;67235;45.638;11.714;2023-11-19T01:12:41;5.60;78.40
78028;DHT22;67235;45.638;11.714;2023-11-19T01:15:07;5.60;78.50
78028;DHT22;67235;45.638;11.714;2023-11-19T01:17:33;5.80;78.70
78028;DHT22;67235;45.638;11.714;2023-11-19T01:19:59;5.90;79.10
78028;DHT22;67235;45.638;11.714;2023-11-19T01:22:24;6.00;79.10
78028;DHT22;67235;45.638;11.714;2023-11-19T01:24:50;6.10;79.20
78028;DHT22;67235;45.638;11.714;2023-11-19T01:27:17;6.10;79.00
78028;DHT22;67235;45.638;11.714;2023-11-19T01:29:43;6.20;78.80
78028;DHT22;67235;45.638;11.714;2023-11-19T01:32:08;6.10;78.50
78028;DHT22;67235;45.638;11.714;2023-11-19T01:34:34;6.20;78.70
78028;DHT22;67235;45.638;11.714;2023-11-19T01:37:01;6.20;79.10
78028;DHT22;67235;45.638;11.714;2023-11-19T01:39:26;6.30;79.10
78028;DHT22;67235;45.638;11.714;2023-11-19T01:41:52;6.40;79.00
78028;DHT22;67235;45.638;11.714;2023-11-19T01:44:19;6.40;78.90
78028;DHT22;67235;45.638;11.714;2023-11-19T01:46:45;6.40;78.80
78028;DHT22;67235;45.638;11.714;2023-11-19T01:49:15;6.60;78.30
78028;DHT22;67235;45.638;11.714;2023-11-19T01:51:41;6.40;78.40
78028;DHT22;67235;45.638;11.714;2023-11-19T01:54:07;6.50;78.40
78028;DHT22;67235;45.638;11.714;2023-11-19T01:56:33;6.60;78.20
78028;DHT22;67235;45.638;11.714;2023-11-19T01:58:59;6.60;78.20
78028;DHT22;67235;45.638;11.714;2023-11-19T02:01:25;6.60;78.40
78028;DHT22;67235;45.638;11.714;2023-11-19T02:03:51;6.50;78.60
78028;DHT22;67235;45.638;11.714;2023-11-19T02:06:17;6.50;78.70
78028;DHT22;67235;45.638;11.714;2023-11-19T02:08:43;6.60;78.50
78028;DHT22;67235;45.638;11.714;2023-11-19T02:11:09;6.60;78.40
78028;DHT22;67235;45.638;11.714;2023-11-19T02:13:35;6.60;78.40
78028;DHT22;67235;45.638;11.714;2023-11-19T02:16:02;6.50;78.30
78028;DHT22;67235;45.638;11.714;2023-11-19T02:18:29;6.70;78.50
78028;DHT22;67235;45.638;11.714;2023-11-19T02:20:58;6.40;78.20
78028;DHT22;67235;45.638;11.714;2023-11-19T02:23:25;6.60;78.30
78028;DHT22;67235;45.638;11.714;2023-11-19T02:28:21;6.40;77.60
78028;DHT22;67235;45.638;11.714;2023-11-19T02:30:47;6.40;78.10
78028;DHT22;67235;45.638;11.714;2023-11-19T02:33:13;6.30;78.30
78028;DHT22;67235;45.638;11.714;2023-11-19T02:35:38;6.20;78.30
78028;DHT22;67235;45.638;11.714;2023-11-19T02:38:06;6.10;78.40
78028;DHT22;67235;45.638;11.714;2023-11-19T02:40:32;6.10;78.50
78028;DHT22;67235;45.638;11.714;2023-11-19T02:42:58;6.10;78.40
78028;DHT22;67235;45.638;11.714;2023-11-19T02:45:24;6.10;78.50
78028;DHT22;67235;45.638;11.714;2023-11-19T02:47:50;6.10;78.60
78028;DHT22;67235;45.638;11.714;2023-11-19T02:50:17;6.00;78.30
78028;DHT22;67235;45.638;11.714;2023-11-19T02:52:46;5.80;78.40
78028;DHT22;67235;45.638;11.714;2023-11-19T02:55:11;6.20;78.30
78028;DHT22;67235;45.638;11.714;2023-11-19T02:57:40;6.10;78.30
78028;DHT22;67235;45.638;11.714;2023-11-19T03:00:16;5.90;78.50
78028;DHT22;67235;45.638;11.714;2023-11-19T03:02:42;6.10;78.50
78028;DHT22;67235;45.638;11.714;2023-11-19T03:05:13;6.10;78.20
78028;DHT22;67235;45.638;11.714;2023-11-19T03:07:40;5.90;78.20
78028;DHT22;67235;45.638;11.714;2023-11-19T03:10:08;5.80;78.30
78028;DHT22;67235;45.638;11.714;2023-11-19T03:12:34;5.90;78.20
78028;DHT22;67235;45.638;11.714;2023-11-19T03:15:00;5.90;78.10
78028;DHT22;67235;45.638;11.714;2023-11-19T03:17:26;5.70;78.50
78028;DHT22;67235;45.638;11.714;2023-11-19T03:19:52;5.70;78.80
78028;DHT22;67235;45.638;11.714;2023-11-19T03:22:18;5.70;78.60
78028;DHT22;67235;45.638;11.714;2023-11-19T03:24:43;6.00;78.30
78028;DHT22;67235;45.638;11.714;2023-11-19T03:27:09;5.50;78.50
78028;DHT22;67235;45.638;11.714;2023-11-19T03:29:35;5.60;78.60
78028;DHT22;67235;45.638;11.714;2023-11-19T03:32:01;5.50;78.80
78028;DHT22;67235;45.638;11.714;2023-11-19T03:34:27;5.70;78.60
78028;DHT22;67235;45.638;11.714;2023-11-19T03:36:52;5.50;78.50
78028;DHT22;67235;45.638;11.714;2023-11-19T03:39:18;5.50;78.70
78028;DHT22;67235;45.638;11.714;2023-11-19T03:41:47;5.60;78.40
78028;DHT22;67235;45.638;11.714;2023-11-19T03:44:12;5.60;78.60
78028;DHT22;67235;45.638;11.714;2023-11-19T03:46:38;5.30;79.10
78028;DHT22;67235;45.638;11.714;2023-11-19T03:49:04;5.40;78.80
78028;DHT22;67235;45.638;11.714;2023-11-19T03:51:32;5.40;78.50
78028;DHT22;67235;45.638;11.714;2023-11-19T03:53:57;5.30;78.50
78028;DHT22;67235;45.638;11.714;2023-11-19T03:56:24;5.30;78.30
78028;DHT22;67235;45.638;11.714;2023-11-19T03:58:50;5.30;78.50
78028;DHT22;67235;45.638;11.714;2023-11-19T04:01:15;5.30;78.40
78028;DHT22;67235;45.638;11.714;2023-11-19T04:03:41;5.30;78.90
78028;DHT22;67235;45.638;11.714;2023-11-19T04:06:07;5.50;79.00
78028;DHT22;67235;45.638;11.714;2023-11-19T04:08:33;5.20;78.20
78028;DHT22;67235;45.638;11.714;2023-11-19T04:10:59;5.30;78.10
78028;DHT22;67235;45.638;11.714;2023-11-19T04:13:26;5.40;78.40
78028;DHT22;67235;45.638;11.714;2023-11-19T04:15:52;5.50;78.50
78028;DHT22;67235;45.638;11.714;2023-11-19T04:18:17;5.30;78.70
78028;DHT22;67235;45.638;11.714;2023-11-19T04:20:43;5.10;78.40
78028;DHT22;67235;45.638;11.714;2023-11-19T04:23:09;5.40;78.50
78028;DHT22;67235;45.638;11.714;2023-11-19T04:25:35;5.20;78.30
78028;DHT22;67235;45.638;11.714;2023-11-19T04:28:00;5.10;78.20
78028;DHT22;67235;45.638;11.714;2023-11-19T04:30:27;5.10;78.30
78028;DHT22;67235;45.638;11.714;2023-11-19T04:32:53;4.90;78.80
78028;DHT22;67235;45.638;11.714;2023-11-19T04:35:19;4.90;79.10
78028;DHT22;67235;45.638;11.714;2023-11-19T04:37:44;5.10;79.00
78028;DHT22;67235;45.638;11.714;2023-11-19T04:40:10;5.00;79.10
78028;DHT22;67235;45.638;11.714;2023-11-19T04:42:37;4.90;78.50
78028;DHT22;67235;45.638;11.714;2023-11-19T04:45:06;5.10;78.30
78028;DHT22;67235;45.638;11.714;2023-11-19T04:47:32;4.90;78.70
78028;DHT22;67235;45.638;11.714;2023-11-19T04:49:58;5.00;78.90
78028;DHT22;67235;45.638;11.714;2023-11-19T04:52:24;5.10;78.90
78028;DHT22;67235;45.638;11.714;2023-11-19T04:54:50;5.10;78.60
78028;DHT22;67235;45.638;11.714;2023-11-19T04:57:16;5.00;77.80
78028;DHT22;67235;45.638;11.714;2023-11-19T04:59:42;4.70;78.00
78028;DHT22;67235;45.638;11.714;2023-11-19T05:02:08;4.90;78.00
78028;DHT22;67235;45.638;11.714;2023-11-19T05:04:34;4.70;78.50
78028;DHT22;67235;45.638;11.714;2023-11-19T05:07:00;4.60;78.40
78028;DHT22;67235;45.638;11.714;2023-11-19T05:09:26;4.80;78.80
78028;DHT22;67235;45.638;11.714;2023-11-19T05:11:52;4.70;78.30
78028;DHT22;67235;45.638;11.714;2023-11-19T05:14:17;4.80;78.40
78028;DHT22;67235;45.638;11.714;2023-11-19T05:16:47;5.00;78.90
78028;DHT22;67235;45.638;11.714;2023-11-19T05:19:13;4.90;79.40
78028;DHT22;67235;45.638;11.714;2023-11-19T05:21:41;4.90;79.10
78028;DHT22;67235;45.638;11.714;2023-11-19T05:24:07;4.80;79.20
78028;DHT22;67235;45.638;11.714;2023-11-19T05:26:33;5.00;79.00
78028;DHT22;67235;45.638;11.714;2023-11-19T05:28:58;5.00;79.10
78028;DHT22;67235;45.638;11.714;2023-11-19T05:31:24;4.80;78.60
78028;DHT22;67235;45.638;11.714;2023-11-19T05:33:50;4.90;78.50
78028;DHT22;67235;45.638;11.714;2023-11-19T05:36:15;4.70;78.70
78028;DHT22;67235;45.638;11.714;2023-11-19T05:38:41;4.70;78.70
78028;DHT22;67235;45.638;11.714;2023-11-19T05:41:06;4.80;78.60
78028;DHT22;67235;45.638;11.714;2023-11-19T05:43:32;4.80;79.10
78028;DHT22;67235;45.638;11.714;2023-11-19T05:45:58;4.60;79.40
78028;DHT22;67235;45.638;11.714;2023-11-19T05:48:25;4.70;79.20
78028;DHT22;67235;45.638;11.714;2023-11-19T05:50:51;4.50;79.40
78028;DHT22;67235;45.638;11.714;2023-11-19T05:53:17;4.60;79.70
78028;DHT22;67235;45.638;11.714;2023-11-19T05:55:43;4.70;80.10
78028;DHT22;67235;45.638;11.714;2023-11-19T05:58:20;4.70;80.00
78028;DHT22;67235;45.638;11.714;2023-11-19T06:00:46;4.60;80.00
78028;DHT22;67235;45.638;11.714;2023-11-19T06:03:12;4.70;79.40
78028;DHT22;67235;45.638;11.714;2023-11-19T06:05:38;4.50;79.70
78028;DHT22;67235;45.638;11.714;2023-11-19T06:08:04;4.50;79.70
78028;DHT22;67235;45.638;11.714;2023-11-19T06:10:32;4.60;79.50
78028;DHT22;67235;45.638;11.714;2023-11-19T06:12:58;4.50;79.00
78028;DHT22;67235;45.638;11.714;2023-11-19T06:15:25;4.40;78.90
78028;DHT22;67235;45.638;11.714;2023-11-19T06:17:51;4.60;79.50
78028;DHT22;67235;45.638;11.714;2023-11-19T06:20:17;4.50;79.70
78028;DHT22;67235;45.638;11.714;2023-11-19T06:22:45;4.60;79.60
78028;DHT22;67235;45.638;11.714;2023-11-19T06:25:11;4.70;80.00
78028;DHT22;67235;45.638;11.714;2023-11-19T06:27:37;4.60;79.10
78028;DHT22;67235;45.638;11.714;2023-11-19T06:30:02;4.60;79.00
78028;DHT22;67235;45.638;11.714;2023-11-19T06:32:28;4.50;79.30
78028;DHT22;67235;45.638;11.714;2023-11-19T06:34:54;4.70;79.00
78028;DHT22;67235;45.638;11.714;2023-11-19T06:37:20;4.50;79.00
78028;DHT22;67235;45.638;11.714;2023-11-19T06:39:45;4.50;79.10
78028;DHT22;67235;45.638;11.714;2023-11-19T06:42:11;4.40;79.30
78028;DHT22;67235;45.638;11.714;2023-11-19T06:44:37;4.60;79.10
78028;DHT22;67235;45.638;11.714;2023-11-19T06:47:02;4.50;79.10
78028;DHT22;67235;45.638;11.714;2023-11-19T06:49:28;4.40;79.00
78028;DHT22;67235;45.638;11.714;2023-11-19T06:51:54;4.50;79.10
78028;DHT22;67235;45.638;11.714;2023-11-19T06:54:19;4.60;79.20
78028;DHT22;67235;45.638;11.714;2023-11-19T06:56:46;4.80;78.90
78028;DHT22;67235;45.638;11.714;2023-11-19T06:59:12;4.90;79.20
78028;DHT22;67235;45.638;11.714;2023-11-19T07:01:37;4.90;79.00
78028;DHT22;67235;45.638;11.714;2023-11-19T07:04:03;5.30;79.10
78028;DHT22;67235;45.638;11.714;2023-11-19T07:06:36;5.50;79.00
78028;DHT22;67235;45.638;11.714;2023-11-19T07:09:02;5.50;78.80
78028;DHT22;67235;45.638;11.714;2023-11-19T07:11:38;5.40;78.70
78028;DHT22;67235;45.638;11.714;2023-11-19T07:14:04;5.90;78.10
78028;DHT22;67235;45.638;11.714;2023-11-19T07:16:30;5.90;77.60
78028;DHT22;67235;45.638;11.714;2023-11-19T07:18:56;6.30;77.40
78028;DHT22;67235;45.638;11.714;2023-11-19T07:21:23;6.50;77.00
78028;DHT22;67235;45.638;11.714;2023-11-19T07:23:51;6.70;77.50
78028;DHT22;67235;45.638;11.714;2023-11-19T07:26:18;7.20;77.00
78028;DHT22;67235;45.638;11.714;2023-11-19T07:28:45;7.30;76.70
78028;DHT22;67235;45.638;11.714;2023-11-19T07:31:12;7.80;76.20
78028;DHT22;67235;45.638;11.714;2023-11-19T07:33:41;7.90;75.90
78028;DHT22;67235;45.638;11.714;2023-11-19T07:36:11;8.60;74.80
78028;DHT22;67235;45.638;11.714;2023-11-19T07:38:39;9.40;74.10
78028;DHT22;67235;45.638;11.714;2023-11-19T07:41:05;10.10;73.00
78028;DHT22;67235;45.638;11.714;2023-11-19T07:43:32;10.60;72.00
78028;DHT22;67235;45.638;11.714;2023-11-19T07:46:00;11.20;71.50
78028;DHT22;67235;45.638;11.714;2023-11-19T07:48:27;11.50;71.00
78028;DHT22;67235;45.638;11.714;2023-11-19T07:50:53;11.60;71.00
78028;DHT22;67235;45.638;11.714;2023-11-19T07:53:19;11.60;71.00
78028;DHT22;67235;45.638;11.714;2023-11-19T07:55:45;12.60;70.40
78028;DHT22;67235;45.638;11.714;2023-11-19T07:58:12;13.60;67.80
78028;DHT22;67235;45.638;11.714;2023-11-19T08:00:40;14.90;66.30
78028;DHT22;67235;45.638;11.714;2023-11-19T08:03:07;15.80;64.30
78028;DHT22;67235;45.638;11.714;2023-11-19T08:05:34;16.50;63.00
78028;DHT22;67235;45.638;11.714;2023-11-19T08:08:00;17.10;53.00
78028;DHT22;67235;45.638;11.714;2023-11-19T08:10:27;18.20;49.30
78028;DHT22;67235;45.638;11.714;2023-11-19T08:12:53;19.30;47.70
78028;DHT22;67235;45.638;11.714;2023-11-19T08:15:20;20.00;45.70
78028;DHT22;67235;45.638;11.714;2023-11-19T08:17:51;20.80;42.60
78028;DHT22;67235;45.638;11.714;2023-11-19T08:20:17;21.60;39.70
78028;DHT22;67235;45.638;11.714;2023-11-19T08:22:43;22.20;37.40
78028;DHT22;67235;45.638;11.714;2023-11-19T08:25:09;22.30;36.70
78028;DHT22;67235;45.638;11.714;2023-11-19T08:27:35;22.90;35.10
78028;DHT22;67235;45.638;11.714;2023-11-19T08:30:05;22.90;33.50
78028;DHT22;67235;45.638;11.714;2023-11-19T08:32:37;23.40;33.20
78028;DHT22;67235;45.638;11.714;2023-11-19T08:35:05;23.70;31.60
78028;DHT22;67235;45.638;11.714;2023-11-19T08:37:31;24.10;30.70
78028;DHT22;67235;45.638;11.714;2023-11-19T08:39:57;24.30;31.30
78028;DHT22;67235;45.638;11.714;2023-11-19T08:42:22;24.30;31.40
78028;DHT22;67235;45.638;11.714;2023-11-19T08:44:50;24.40;30.70
78028;DHT22;67235;45.638;11.714;2023-11-19T08:47:16;24.90;30.30
78028;DHT22;67235;45.638;11.714;2023-11-19T08:49:46;25.20;28.70
78028;DHT22;67235;45.638;11.714;2023-11-19T08:52:12;25.20;29.50
78028;DHT22;67235;45.638;11.714;2023-11-19T08:54:42;25.90;28.80
78028;DHT22;67235;45.638;11.714;2023-11-19T08:57:08;26.10;27.80
78028;DHT22;67235;45.638;11.714;2023-11-19T08:59:35;26.10;26.40
78028;DHT22;67235;45.638;11.714;2023-11-19T09:02:05;25.90;26.60
78028;DHT22;67235;45.638;11.714;2023-11-19T09:04:32;25.70;26.20
78028;DHT22;67235;45.638;11.714;2023-11-19T09:06:59;25.70;26.70
78028;DHT22;67235;45.638;11.714;2023-11-19T09:09:28;25.90;27.20
78028;DHT22;67235;45.638;11.714;2023-11-19T09:11:56;26.00;25.60
78028;DHT22;67235;45.638;11.714;2023-11-19T09:14:23;26.40;24.50
78028;DHT22;67235;45.638;11.714;2023-11-19T09:16:51;26.80;23.80
78028;DHT22;67235;45.638;11.714;2023-11-19T09:19:18;26.30;24.70
78028;DHT22;67235;45.638;11.714;2023-11-19T09:21:46;25.40;25.10
78028;DHT22;67235;45.638;11.714;2023-11-19T09:24:13;24.00;25.10
78028;DHT22;67235;45.638;11.714;2023-11-19T09:26:39;24.40;24.80
78028;DHT22;67235;45.638;11.714;2023-11-19T09:29:10;24.40;25.00
78028;DHT22;67235;45.638;11.714;2023-11-19T09:31:37;24.60;24.70
78028;DHT22;67235;45.638;11.714;2023-11-19T09:34:04;24.50;23.00
78028;DHT22;67235;45.638;11.714;2023-11-19T09:36:30;23.90;24.50
78028;DHT22;67235;45.638;11.714;2023-11-19T09:38:55;23.80;25.50
78028;DHT22;67235;45.638;11.714;2023-11-19T09:41:21;23.90;25.30
78028;DHT22;67235;45.638;11.714;2023-11-19T09:43:48;24.40;24.70
78028;DHT22;67235;45.638;11.714;2023-11-19T09:46:15;25.10;24.80
78028;DHT22;67235;45.638;11.714;2023-11-19T09:48:42;25.70;23.30
78028;DHT22;67235;45.638;11.714;2023-11-19T09:51:10;26.30;22.20
78028;DHT22;67235;45.638;11.714;2023-11-19T09:53:36;26.40;21.90
78028;DHT22;67235;45.638;11.714;2023-11-19T09:56:02;27.50;20.60
78028;DHT22;67235;45.638;11.714;2023-11-19T09:58:32;27.60;20.60
78028;DHT22;67235;45.638;11.714;2023-11-19T10:00:58;27.70;19.40
78028;DHT22;67235;45.638;11.714;2023-11-19T10:03:35;27.40;21.60
78028;DHT22;67235;45.638;11.714;2023-11-19T10:06:08;27.10;20.50
78028;DHT22;67235;45.638;11.714;2023-11-19T10:08:34;27.80;20.50
78028;DHT22;67235;45.638;11.714;2023-11-19T10:11:02;28.10;19.30
78028;DHT22;67235;45.638;11.714;2023-11-19T10:13:28;28.10;18.90
78028;DHT22;67235;45.638;11.714;2023-11-19T10:15:57;27.90;18.20
78028;DHT22;67235;45.638;11.714;2023-11-19T10:18:23;27.60;19.60
78028;DHT22;67235;45.638;11.714;2023-11-19T10:20:49;27.80;19.80
78028;DHT22;67235;45.638;11.714;2023-11-19T10:23:15;28.00;18.60
78028;DHT22;67235;45.638;11.714;2023-11-19T10:25:41;28.60;18.10
78028;DHT22;67235;45.638;11.714;2023-11-19T10:28:07;28.50;17.50
78028;DHT22;67235;45.638;11.714;2023-11-19T10:30:32;27.60;18.90
78028;DHT22;67235;45.638;11.714;2023-11-19T10:33:03;26.90;20.70
78028;DHT22;67235;45.638;11.714;2023-11-19T10:35:32;27.20;20.90
78028;DHT22;67235;45.638;11.714;2023-11-19T10:38:31;27.00;19.60
78028;DHT22;67235;45.638;11.714;2023-11-19T10:40:50;27.30;20.90
78028;DHT22;67235;45.638;11.714;2023-11-19T10:43:17;27.60;19.80
78028;DHT22;67235;45.638;11.714;2023-11-19T10:45:42;27.30;19.50
78028;DHT22;67235;45.638;11.714;2023-11-19T10:48:08;26.70;19.30
78028;DHT22;67235;45.638;11.714;2023-11-19T10:50:35;26.30;20.20
78028;DHT22;67235;45.638;11.714;2023-11-19T10:53:02;25.50;20.60
78028;DHT22;67235;45.638;11.714;2023-11-19T10:55:33;25.10;20.60
78028;DHT22;67235;45.638;11.714;2023-11-19T10:58:01;24.10;24.80
78028;DHT22;67235;45.638;11.714;2023-11-19T11:00:32;24.70;27.40
78028;DHT22;67235;45.638;11.714;2023-11-19T11:03:05;24.60;24.70
78028;DHT22;67235;45.638;11.714;2023-11-19T11:05:35;24.50;23.00
78028;DHT22;67235;45.638;11.714;2023-11-19T11:08:02;23.40;23.70
78028;DHT22;67235;45.638;11.714;2023-11-19T11:10:31;22.90;24.30
78028;DHT22;67235;45.638;11.714;2023-11-19T11:12:59;22.90;25.80
78028;DHT22;67235;45.638;11.714;2023-11-19T11:15:28;23.60;26.10
78028;DHT22;67235;45.638;11.714;2023-11-19T11:17:57;24.10;24.00
78028;DHT22;67235;45.638;11.714;2023-11-19T11:20:25;23.80;24.30
78028;DHT22;67235;45.638;11.714;2023-11-19T11:22:57;23.40;24.20
78028;DHT22;67235;45.638;11.714;2023-11-19T11:30:49;23.20;24.90
78028;DHT22;67235;45.638;11.714;2023-11-19T11:35:54;24.00;23.00
78028;DHT22;67235;45.638;11.714;2023-11-19T11:38:22;24.40;23.20
78028;DHT22;67235;45.638;11.714;2023-11-19T11:43:46;24.50;23.20
78028;DHT22;67235;45.638;11.714;2023-11-19T11:49:08;26.90;20.40
78028;DHT22;67235;45.638;11.714;2023-11-19T11:51:57;27.70;19.20
78028;DHT22;67235;45.638;11.714;2023-11-19T11:59:53;25.60;18.50
78028;DHT22;67235;45.638;11.714;2023-11-19T12:02:19;23.60;20.80
78028;DHT22;67235;45.638;11.714;2023-11-19T12:04:51;23.40;22.40
78028;DHT22;67235;45.638;11.714;2023-11-19T12:07:18;23.10;23.10
78028;DHT22;67235;45.638;11.714;2023-11-19T12:09:51;22.60;24.80
78028;DHT22;67235;45.638;11.714;2023-11-19T12:17:58;21.20;28.10
78028;DHT22;67235;45.638;11.714;2023-11-19T12:20:20;21.10;28.70
78028;DHT22;67235;45.638;11.714;2023-11-19T12:22:54;21.20;29.10
78028;DHT22;67235;45.638;11.714;2023-11-19T12:25:20;21.60;27.80
78028;DHT22;67235;45.638;11.714;2023-11-19T12:27:51;21.70;26.10
78028;DHT22;67235;45.638;11.714;2023-11-19T12:30:30;21.80;26.40
78028;DHT22;67235;45.638;11.714;2023-11-19T12:33:07;22.10;26.30
78028;DHT22;67235;45.638;11.714;2023-11-19T12:35:39;22.90;24.10
78028;DHT22;67235;45.638;11.714;2023-11-19T12:38:24;23.50;23.90
78028;DHT22;67235;45.638;11.714;2023-11-19T12:41:07;23.80;22.30
78028;DHT22;67235;45.638;11.714;2023-11-19T12:43:40;24.50;21.80
78028;DHT22;67235;45.638;11.714;2023-11-19T12:46:21;24.70;21.50
78028;DHT22;67235;45.638;11.714;2023-11-19T12:48:54;25.10;21.00
78028;DHT22;67235;45.638;11.714;2023-11-19T12:51:21;25.30;20.80
78028;DHT22;67235;45.638;11.714;2023-11-19T12:53:52;25.10;20.90
78028;DHT22;67235;45.638;11.714;2023-11-19T12:56:23;25.20;21.00
78028;DHT22;67235;45.638;11.714;2023-11-19T12:58:49;25.10;21.50
78028;DHT22;67235;45.638;11.714;2023-11-19T13:01:16;25.10;22.70
78028;DHT22;67235;45.638;11.714;2023-11-19T13:03:42;25.20;21.50
78028;DHT22;67235;45.638;11.714;2023-11-19T13:06:09;24.80;22.10
78028;DHT22;67235;45.638;11.714;2023-11-19T13:08:46;24.70;22.90
78028;DHT22;67235;45.638;11.714;2023-11-19T13:11:13;24.10;23.70
78028;DHT22;67235;45.638;11.714;2023-11-19T13:16:25;24.30;22.70
78028;DHT22;67235;45.638;11.714;2023-11-19T13:18:51;24.30;23.00
78028;DHT22;67235;45.638;11.714;2023-11-19T13:21:17;24.20;24.00
78028;DHT22;67235;45.638;11.714;2023-11-19T13:23:43;23.90;22.60
78028;DHT22;67235;45.638;11.714;2023-11-19T13:26:09;23.90;23.60
78028;DHT22;67235;45.638;11.714;2023-11-19T13:28:35;23.70;24.10
78028;DHT22;67235;45.638;11.714;2023-11-19T13:31:01;23.50;25.20
78028;DHT22;67235;45.638;11.714;2023-11-19T13:33:26;23.40;25.50
78028;DHT22;67235;45.638;11.714;2023-11-19T13:35:52;22.90;27.00
78028;DHT22;67235;45.638;11.714;2023-11-19T13:38:20;22.60;27.40
78028;DHT22;67235;45.638;11.714;2023-11-19T13:40:52;22.40;27.00
78028;DHT22;67235;45.638;11.714;2023-11-19T13:43:19;22.00;26.60
78028;DHT22;67235;45.638;11.714;2023-11-19T13:45:50;21.90;27.30
78028;DHT22;67235;45.638;11.714;2023-11-19T13:48:17;21.70;26.80
78028;DHT22;67235;45.638;11.714;2023-11-19T13:50:45;21.40;27.30
78028;DHT22;67235;45.638;11.714;2023-11-19T13:53:12;21.00;28.10
78028;DHT22;67235;45.638;11.714;2023-11-19T13:55:39;20.60;29.50
78028;DHT22;67235;45.638;11.714;2023-11-19T13:58:09;20.20;31.30
78028;DHT22;67235;45.638;11.714;2023-11-19T14:00:35;19.90;32.40
78028;DHT22;67235;45.638;11.714;2023-11-19T14:03:07;19.60;32.10
78028;DHT22;67235;45.638;11.714;2023-11-19T14:05:37;19.30;33.70
78028;DHT22;67235;45.638;11.714;2023-11-19T14:08:08;19.00;33.60
78028;DHT22;67235;45.638;11.714;2023-11-19T14:10:40;18.70;34.40
78028;DHT22;67235;45.638;11.714;2023-11-19T14:13:16;18.40;35.60
78028;DHT22;67235;45.638;11.714;2023-11-19T14:15:41;17.50;36.90
78028;DHT22;67235;45.638;11.714;2023-11-19T14:18:09;17.00;39.20
78028;DHT22;67235;45.638;11.714;2023-11-19T14:20:36;17.20;38.80
78028;DHT22;67235;45.638;11.714;2023-11-19T14:23:06;17.00;36.60
78028;DHT22;67235;45.638;11.714;2023-11-19T14:25:36;16.90;38.10
78028;DHT22;67235;45.638;11.714;2023-11-19T14:28:05;16.90;38.60
78028;DHT22;67235;45.638;11.714;2023-11-19T14:30:35;16.90;39.30
78028;DHT22;67235;45.638;11.714;2023-11-19T14:33:04;16.70;43.00
78028;DHT22;67235;45.638;11.714;2023-11-19T14:35:30;16.70;42.30
78028;DHT22;67235;45.638;11.714;2023-11-19T14:38:16;16.60;43.60
78028;DHT22;67235;45.638;11.714;2023-11-19T14:40:42;16.50;41.30
78028;DHT22;67235;45.638;11.714;2023-11-19T14:43:17;16.40;41.70
78028;DHT22;67235;45.638;11.714;2023-11-19T14:45:54;16.10;45.50
78028;DHT22;67235;45.638;11.714;2023-11-19T14:48:20;16.00;46.40
78028;DHT22;67235;45.638;11.714;2023-11-19T14:50:46;15.90;48.00
78028;DHT22;67235;45.638;11.714;2023-11-19T14:53:12;15.60;46.30
78028;DHT22;67235;45.638;11.714;2023-11-19T14:55:38;15.50;46.90
78028;DHT22;67235;45.638;11.714;2023-11-19T14:58:03;15.50;50.30
78028;DHT22;67235;45.638;11.714;2023-11-19T15:00:29;15.40;50.20
78028;DHT22;67235;45.638;11.714;2023-11-19T15:02:55;15.40;62.70
78028;DHT22;67235;45.638;11.714;2023-11-19T15:05:21;15.20;62.70
78028;DHT22;67235;45.638;11.714;2023-11-19T15:07:47;15.00;62.70
78028;DHT22;67235;45.638;11.714;2023-11-19T15:10:14;14.80;63.50
78028;DHT22;67235;45.638;11.714;2023-11-19T15:12:39;14.60;64.90
78028;DHT22;67235;45.638;11.714;2023-11-19T15:15:07;14.40;62.90
78028;DHT22;67235;45.638;11.714;2023-11-19T15:17:35;14.30;63.20
78028;DHT22;67235;45.638;11.714;2023-11-19T15:20:03;14.20;62.60
78028;DHT22;67235;45.638;11.714;2023-11-19T15:22:35;14.20;63.00
78028;DHT22;67235;45.638;11.714;2023-11-19T15:25:07;14.10;64.80
78028;DHT22;67235;45.638;11.714;2023-11-19T15:27:49;13.90;63.30
78028;DHT22;67235;45.638;11.714;2023-11-19T15:30:21;13.70;64.70
78028;DHT22;67235;45.638;11.714;2023-11-19T15:32:48;13.50;66.60
78028;DHT22;67235;45.638;11.714;2023-11-19T15:35:25;13.30;67.30
78028;DHT22;67235;45.638;11.714;2023-11-19T15:37:56;13.20;67.10
78028;DHT22;67235;45.638;11.714;2023-11-19T15:40:23;13.00;67.00
78028;DHT22;67235;45.638;11.714;2023-11-19T15:42:49;12.90;67.20
78028;DHT22;67235;45.638;11.714;2023-11-19T15:45:17;12.80;67.60
78028;DHT22;67235;45.638;11.714;2023-11-19T15:47:51;12.70;69.00
78028;DHT22;67235;45.638;11.714;2023-11-19T15:50:26;12.60;67.30
78028;DHT22;67235;45.638;11.714;2023-11-19T15:53:04;12.30;67.70
78028;DHT22;67235;45.638;11.714;2023-11-19T15:55:33;12.20;68.30